Etusivu
METAR-TAF:

METAR-TAF

Lentoasemat :

Aransas County Airport

Rockport, Texas, Yhdysvallat

Leveyspiiri: 28-05-01N, Pituuspiiri: 097-02-47W, korkeus merenpinnasta: 7 m

Tämänhetkinen sää

Tämä raportti tehtiin 19 minuuttia sitten, kello 06.53 UTC
Tuuli 10 kn pohjoisen/luoteesta
Lämpötila 16°C
Kosteus 82%
Ilmanpaine 1014 hPa
Näkyvyys: 12.9 km
Pilvistä 500 ft:n korkeudessa

METAR: KRKP 050653Z AUTO 33010KT 8SM OVC005 16/13 A2994 RMK AO2 SLP141 T01560128

Aika: 02:12 (07:12 UTC)


TAF: puuttuu

Säähavainnot ja -ennusteet yli 4000 lentoasemalta (METAR- ja TAF-raportit).

Käytössä olevat sääasemat on merkitty karttaan keltaisilla ja punaisilla pisteillä.

Aseta hiiri pisteen päälle nähdäksesi sääaseman nimen.

Klikkaa sitten nähdäksesi säähavainnot ja -ennusteet.

Kartan vaihtaminen: klikkaa mustalla rastilla varustettuja vihreitä pisteitä, niin voit zoomata sisään; viivalla varustettua vihreää pistettä, niin voit zoomata ulos tai vihreitä nuolia, niin pääset viereisille kartoille.


METAR-TAF: